Terminal Aerodrome Forecast
Issued by NWS

Home | Current Version | Previous Version | Text Only | Print | Product List | Glossary Off
Versions: 1 2 3 4 5 6 7 8 9 10 11 12 13 14 15 16 17 18

000
FTUS43 KBIS 032200 AAA
TAFJMS
TAF AMD
KJMS 032200Z 0322/0418 00000KT 2SM FU VV025
     FM040100 13004KT 4SM FU SCT050
      TEMPO 0409/0413 2SM FU VV020
     FM041600 18009KT 5SM FU SCT040=

USA.gov is the U.S. government's official web portal to all federal, state and local government web resources and services.